createdAt,value
2019-04-20T00:00:35.893Z,7.21
2019-04-20T00:03:00.086Z,7.10
2019-04-20T00:05:30.859Z,6.99
2019-04-20T00:08:03.243Z,6.83
2019-04-20T00:10:40.171Z,6.83
2019-04-20T00:13:13.793Z,6.81
2019-04-20T00:15:32.321Z,6.89
2019-04-20T00:18:03.496Z,7.04
2019-04-20T00:20:35.285Z,7.11
2019-04-20T00:23:29.535Z,6.99
2019-04-20T00:26:22.128Z,6.91
2019-04-20T00:29:01.096Z,6.98
2019-04-20T00:31:30.673Z,7.01
2019-04-20T00:33:56.181Z,7.13
2019-04-20T00:36:16.141Z,7.08
2019-04-20T00:38:50.053Z,7.13
2019-04-20T00:41:18.247Z,7.18
2019-04-20T00:43:47.144Z,7.08
2019-04-20T00:46:26.239Z,6.94
2019-04-20T00:48:55.982Z,6.75
2019-04-20T00:51:39.567Z,7.08
2019-04-20T00:53:51.225Z,6.79
2019-04-20T00:56:18.350Z,6.63
2019-04-20T00:58:58.173Z,6.54
2019-04-20T01:01:38.121Z,6.80
2019-04-20T01:04:10.654Z,6.80
2019-04-20T01:06:49.201Z,6.73
2019-04-20T01:09:11.971Z,6.73
2019-04-20T01:11:45.036Z,6.87
2019-04-20T01:14:14.227Z,6.68
2019-04-20T01:16:49.126Z,6.75
2019-04-20T01:19:12.544Z,6.75
2019-04-20T01:21:43.082Z,6.52
2019-04-20T01:24:20.139Z,6.33
2019-04-20T01:26:48.922Z,6.56
2019-04-20T01:29:21.538Z,6.66
2019-04-20T01:31:55.901Z,6.65
2019-04-20T01:34:26.977Z,6.30
2019-04-20T01:37:04.398Z,6.30
2019-04-20T01:39:28.429Z,6.36
2019-04-20T01:41:52.020Z,6.13
2019-04-20T01:44:26.659Z,6.30
2019-04-20T01:46:56.427Z,6.30
2019-04-20T01:49:25.597Z,6.29
2019-04-20T01:52:03.869Z,6.33
2019-04-20T01:54:38.574Z,6.30
2019-04-20T01:57:09.488Z,6.34
2019-04-20T01:59:47.047Z,6.39
2019-04-20T02:02:29.413Z,6.39
2019-04-20T02:05:11.325Z,6.18
2019-04-20T02:07:40.005Z,6.13
2019-04-20T02:10:08.854Z,6.31
2019-04-20T02:12:39.545Z,6.17
2019-04-20T02:15:17.194Z,6.12
2019-04-20T02:17:44.113Z,6.15
2019-04-20T02:20:27.728Z,6.28
2019-04-20T02:22:56.918Z,6.10
2019-04-20T02:25:12.170Z,6.10
2019-04-20T02:27:47.097Z,6.22
2019-04-20T02:30:49.107Z,6.06
2019-04-20T02:33:27.398Z,6.04
2019-04-20T02:39:13.681Z,6.13
2019-04-20T02:41:17.849Z,5.95
2019-04-20T02:43:57.969Z,6.08
2019-04-20T02:46:22.445Z,6.04
2019-04-20T02:48:53.502Z,6.09
2019-04-20T02:51:22.572Z,6.16
2019-04-20T02:54:01.400Z,6.06
2019-04-20T02:56:23.237Z,6.26
2019-04-20T02:59:02.156Z,5.91
2019-04-20T03:01:32.437Z,6.33
2019-04-20T03:03:50.388Z,5.91
2019-04-20T03:06:26.263Z,5.91
2019-04-20T03:09:11.348Z,5.88
2019-04-20T03:11:49.919Z,5.91
2019-04-20T03:14:08.421Z,5.90
2019-04-20T03:16:35.768Z,5.82
2019-04-20T03:19:06.092Z,5.89
2019-04-20T03:21:47.967Z,5.78
2019-04-20T03:24:16.014Z,5.68
2019-04-20T03:26:40.318Z,5.86
2019-04-20T03:29:15.930Z,5.86
2019-04-20T03:32:32.334Z,5.72
2019-04-20T03:37:08.418Z,5.92
2019-04-20T03:39:28.398Z,5.84
2019-04-20T03:41:46.734Z,5.66
2019-04-20T03:44:19.253Z,5.55
2019-04-20T03:46:51.969Z,5.48
2019-04-20T03:49:42.245Z,5.48
2019-04-20T03:52:23.452Z,5.65
2019-04-20T03:55:16.197Z,5.44
2019-04-20T03:58:01.451Z,5.50
2019-04-20T04:00:36.218Z,5.44
2019-04-20T04:03:26.118Z,5.47
2019-04-20T04:05:48.016Z,5.62
2019-04-20T04:08:12.226Z,5.43
2019-04-20T04:10:50.166Z,5.43
2019-04-20T04:13:12.487Z,5.41
2019-04-20T04:15:48.788Z,5.44
2019-04-20T04:18:23.616Z,5.43
2019-04-20T04:20:52.221Z,5.43
2019-04-20T04:23:35.635Z,5.26
2019-04-20T04:26:05.762Z,5.57
2019-04-20T04:28:31.079Z,5.43
2019-04-20T04:31:07.934Z,5.32
2019-04-20T04:36:05.891Z,5.28
2019-04-20T04:38:42.389Z,5.29
2019-04-20T04:41:16.428Z,5.39
2019-04-20T04:43:42.598Z,5.22
2019-04-20T04:45:51.556Z,5.36
2019-04-20T04:48:27.651Z,5.31
2019-04-20T04:50:58.949Z,5.33
2019-04-20T04:53:31.226Z,5.54
2019-04-20T04:55:58.573Z,5.44
2019-04-20T04:58:23.647Z,5.59
2019-04-20T05:00:56.832Z,5.56
2019-04-20T05:03:38.823Z,5.54
2019-04-20T05:06:18.631Z,5.55
2019-04-20T05:08:36.888Z,5.65
2019-04-20T05:11:02.605Z,5.82
2019-04-20T05:13:44.907Z,5.82
2019-04-20T05:16:21.705Z,5.86
2019-04-20T05:19:09.582Z,6.02
2019-04-20T05:21:56.464Z,6.16
2019-04-20T05:24:48.184Z,6.16
2019-04-20T05:27:34.783Z,6.27
2019-04-20T05:29:42.986Z,6.50
2019-04-20T05:32:17.917Z,6.50
2019-04-20T05:35:09.671Z,6.93
2019-04-20T05:37:53.302Z,6.88
2019-04-20T05:40:05.987Z,7.14
2019-04-20T05:42:39.825Z,7.23
2019-04-20T05:45:07.296Z,7.37
2019-04-20T05:47:35.387Z,7.37
2019-04-20T05:50:00.962Z,7.43
2019-04-20T05:52:45.562Z,7.59
2019-04-20T05:55:17.605Z,8.02
2019-04-20T05:57:42.716Z,8.08
2019-04-20T06:00:26.713Z,8.20
2019-04-20T06:02:56.017Z,8.35
2019-04-20T06:05:27.550Z,8.47
2019-04-20T06:07:54.833Z,8.64
2019-04-20T06:10:29.822Z,8.83
2019-04-20T06:12:55.507Z,9.01
2019-04-20T06:15:42.099Z,9.27
2019-04-20T06:18:06.918Z,9.44
2019-04-20T06:20:50.335Z,9.64
2019-04-20T06:23:42.743Z,9.85
2019-04-20T06:26:19.495Z,10.00
2019-04-20T06:28:30.103Z,10.19
2019-04-20T06:30:59.461Z,10.38
2019-04-20T06:39:16.118Z,10.88
2019-04-20T06:42:02.009Z,10.96
2019-04-20T06:44:16.511Z,11.11
2019-04-20T06:46:52.484Z,11.31
2019-04-20T06:49:26.896Z,11.42
2019-04-20T06:52:09.799Z,11.53
2019-04-20T06:55:03.461Z,11.59
2019-04-20T06:57:43.469Z,11.59
2019-04-20T07:00:12.815Z,11.73
2019-04-20T07:02:43.106Z,11.75
2019-04-20T07:05:11.836Z,11.78
2019-04-20T07:07:43.352Z,11.86
2019-04-20T07:10:19.756Z,11.91
2019-04-20T07:12:39.587Z,12.07
2019-04-20T07:15:01.349Z,12.15
2019-04-20T07:17:54.979Z,12.22
2019-04-20T07:20:51.596Z,12.36
2019-04-20T07:23:23.681Z,12.35
2019-04-20T07:25:47.888Z,12.57
2019-04-20T07:28:24.743Z,12.53
2019-04-20T07:30:50.638Z,12.59
2019-04-20T07:33:25.694Z,12.67
2019-04-20T07:35:46.112Z,12.72
2019-04-20T07:40:50.981Z,12.97
2019-04-20T07:43:19.816Z,13.02
2019-04-20T07:45:51.713Z,12.97
2019-04-20T07:48:20.930Z,12.99
2019-04-20T07:50:44.878Z,13.05
2019-04-20T07:53:20.197Z,13.14
2019-04-20T07:55:54.163Z,13.27
2019-04-20T07:58:15.596Z,13.20
2019-04-20T08:01:07.878Z,13.31
2019-04-20T08:03:45.700Z,13.35
2019-04-20T08:06:18.366Z,13.44
2019-04-20T08:08:57.407Z,13.47
2019-04-20T08:11:26.719Z,13.67
2019-04-20T08:14:07.094Z,13.68
2019-04-20T08:16:54.655Z,13.87
2019-04-20T08:19:07.847Z,13.76
2019-04-20T08:21:39.191Z,13.80
2019-04-20T08:24:03.833Z,13.83
2019-04-20T08:26:23.089Z,13.92
2019-04-20T08:29:02.445Z,14.03
2019-04-20T08:31:55.901Z,14.10
2019-04-20T08:34:31.338Z,14.21
2019-04-20T08:37:01.691Z,14.49
2019-04-20T08:42:02.064Z,14.47
2019-04-20T08:44:48.478Z,14.67
2019-04-20T08:47:14.852Z,14.77
2019-04-20T08:49:37.870Z,14.77
2019-04-20T08:52:20.990Z,14.79
2019-04-20T08:54:30.996Z,14.94
2019-04-20T08:56:51.526Z,14.99
2019-04-20T08:59:14.646Z,15.04
2019-04-20T09:01:44.610Z,15.06
2019-04-20T09:04:20.736Z,15.01
2019-04-20T09:06:57.404Z,15.14
2019-04-20T09:09:45.519Z,15.08
2019-04-20T09:12:06.485Z,15.29
2019-04-20T09:14:22.093Z,15.24
2019-04-20T09:17:04.882Z,15.46
2019-04-20T09:19:39.986Z,15.50
2019-04-20T09:22:32.270Z,15.66
2019-04-20T09:25:19.307Z,15.98
2019-04-20T09:27:30.211Z,16.27
2019-04-20T09:30:04.325Z,16.09
2019-04-20T09:32:39.689Z,15.97
2019-04-20T09:35:13.584Z,16.24
2019-04-20T09:37:51.133Z,16.40
2019-04-20T09:40:47.065Z,16.70
2019-04-20T09:43:10.976Z,16.80
2019-04-20T09:45:49.030Z,16.78
2019-04-20T09:48:23.337Z,16.95
2019-04-20T09:51:07.916Z,16.88
2019-04-20T09:53:33.054Z,16.84
2019-04-20T09:56:01.623Z,16.82
2019-04-20T09:58:27.167Z,17.08
2019-04-20T10:01:03.250Z,17.24
2019-04-20T10:03:18.833Z,17.18
2019-04-20T10:05:47.920Z,17.24
2019-04-20T10:08:17.612Z,17.33
2019-04-20T10:10:47.648Z,17.58
2019-04-20T10:13:17.436Z,17.72
2019-04-20T10:15:46.288Z,17.64
2019-04-20T10:18:15.350Z,17.71
2019-04-20T10:20:45.293Z,17.62
2019-04-20T10:23:14.421Z,17.74
2019-04-20T10:25:44.593Z,17.82
2019-04-20T10:28:13.918Z,18.25
2019-04-20T10:30:44.307Z,18.43
2019-04-20T10:33:13.413Z,18.49
2019-04-20T10:35:43.496Z,18.69
2019-04-20T10:38:17.875Z,18.65
2019-04-20T10:40:59.801Z,18.70
2019-04-20T10:43:17.389Z,18.68
2019-04-20T10:45:46.821Z,18.89
2019-04-20T10:48:17.244Z,18.77
2019-04-20T10:50:47.224Z,18.72
2019-04-20T10:53:16.000Z,18.74
2019-04-20T10:55:45.262Z,18.84
2019-04-20T10:58:15.524Z,19.02
2019-04-20T11:00:46.119Z,19.12
2019-04-20T11:03:17.638Z,19.37
2019-04-20T11:05:48.795Z,19.64
2019-04-20T11:08:18.083Z,19.46
2019-04-20T11:10:58.939Z,19.64
2019-04-20T11:13:17.466Z,19.72
2019-04-20T11:15:46.491Z,19.68
2019-04-20T11:18:15.575Z,19.61
2019-04-20T11:20:45.518Z,19.69
2019-04-20T11:23:14.395Z,19.67
2019-04-20T11:25:44.159Z,19.39
2019-04-20T11:28:14.349Z,19.44
2019-04-20T11:30:43.810Z,19.59
2019-04-20T11:33:13.958Z,19.59
2019-04-20T11:35:43.692Z,19.80
2019-04-20T11:38:15.898Z,19.85
2019-04-20T11:40:44.878Z,19.87
2019-04-20T11:43:13.920Z,20.06
2019-04-20T11:45:42.822Z,20.21
2019-04-20T11:48:11.699Z,20.20
2019-04-20T11:50:40.542Z,20.12
2019-04-20T11:53:09.551Z,20.12
2019-04-20T11:55:40.398Z,20.12
2019-04-20T11:58:10.090Z,20.09
2019-04-20T12:00:53.998Z,20.17
2019-04-20T12:03:30.879Z,20.18
2019-04-20T12:05:57.134Z,20.25
2019-04-20T12:08:24.990Z,20.35
2019-04-20T12:10:59.367Z,20.27
2019-04-20T12:13:24.941Z,20.27
2019-04-20T12:15:54.002Z,20.33
2019-04-20T12:18:23.353Z,20.22
2019-04-20T12:20:52.631Z,20.42
2019-04-20T12:23:22.297Z,20.59
2019-04-20T12:25:52.319Z,20.72
2019-04-20T12:28:21.990Z,20.70
2019-04-20T12:30:51.517Z,20.69
2019-04-20T12:33:21.855Z,20.68
2019-04-20T12:35:52.176Z,20.64
2019-04-20T12:38:21.141Z,20.70
2019-04-20T12:40:50.517Z,20.73
2019-04-20T12:43:20.367Z,20.66
2019-04-20T12:45:49.747Z,20.75
2019-04-20T12:48:19.728Z,20.89
2019-04-20T12:50:49.902Z,20.90
2019-04-20T12:53:20.332Z,20.81
2019-04-20T12:55:50.740Z,20.94
2019-04-20T12:58:20.899Z,21.13
2019-04-20T13:00:52.120Z,20.87
2019-04-20T13:03:21.504Z,20.85
2019-04-20T13:05:51.893Z,20.89
2019-04-20T13:08:28.678Z,20.95
2019-04-20T13:11:18.411Z,21.25
2019-04-20T13:14:08.448Z,21.16
2019-04-20T13:16:38.697Z,21.10
2019-04-20T13:19:08.911Z,20.97
2019-04-20T13:21:39.031Z,21.11
2019-04-20T13:24:09.013Z,21.14
2019-04-20T13:26:38.233Z,21.09
2019-04-20T13:29:07.138Z,21.24
2019-04-20T13:31:35.953Z,20.96
2019-04-20T13:34:07.721Z,20.78
2019-04-20T13:36:37.972Z,20.85
2019-04-20T13:39:08.217Z,20.78
2019-04-20T13:41:38.063Z,20.78
2019-04-20T13:44:08.389Z,20.79
2019-04-20T13:46:38.719Z,21.00
2019-04-20T13:49:09.162Z,21.01
2019-04-20T13:51:41.399Z,21.04
2019-04-20T13:54:14.993Z,21.13
2019-04-20T13:56:43.830Z,21.03
2019-04-20T13:59:48.090Z,21.07
2019-04-20T14:02:30.890Z,21.01
2019-04-20T14:05:04.659Z,21.02
2019-04-20T14:07:35.541Z,21.03
2019-04-20T14:10:21.613Z,20.88
2019-04-20T14:13:01.250Z,20.71
2019-04-20T14:15:22.839Z,20.99
2019-04-20T14:17:53.039Z,21.10
2019-04-20T14:20:23.781Z,21.10
2019-04-20T14:22:52.921Z,21.15
2019-04-20T14:25:22.851Z,21.23
2019-04-20T14:27:52.908Z,21.13
2019-04-20T14:30:22.368Z,21.16
2019-04-20T14:32:52.551Z,21.03
2019-04-20T14:35:22.748Z,21.00
2019-04-20T14:37:52.106Z,21.08
2019-04-20T14:40:22.120Z,21.33
2019-04-20T14:42:53.376Z,21.27
2019-04-20T14:45:22.676Z,20.99
2019-04-20T14:47:51.925Z,20.97
2019-04-20T14:50:21.147Z,21.19
2019-04-20T14:52:51.415Z,21.20
2019-04-20T14:55:22.459Z,21.28
2019-04-20T14:57:53.202Z,21.20
2019-04-20T15:00:41.946Z,21.29
2019-04-20T15:03:33.136Z,21.21
2019-04-20T15:06:03.380Z,21.25
2019-04-20T15:08:32.576Z,21.30
2019-04-20T15:11:01.306Z,21.20
2019-04-20T15:13:30.825Z,21.23
2019-04-20T15:16:00.115Z,21.13
2019-04-20T15:18:37.756Z,21.02
2019-04-20T15:21:07.658Z,20.73
2019-04-20T15:23:37.366Z,20.63
2019-04-20T15:26:06.621Z,20.67
2019-04-20T15:28:36.583Z,20.53
2019-04-20T15:31:06.016Z,21.00
2019-04-20T15:33:37.076Z,20.91
2019-04-20T15:36:06.331Z,20.80
2019-04-20T15:38:35.620Z,20.72
2019-04-20T15:41:06.929Z,20.84
2019-04-20T15:43:35.645Z,20.71
2019-04-20T15:46:05.458Z,20.50
2019-04-20T15:48:37.737Z,20.56
2019-04-20T15:51:08.003Z,20.69
2019-04-20T15:53:39.898Z,20.55
2019-04-20T15:56:11.518Z,20.38
2019-04-20T15:58:40.724Z,20.38
2019-04-20T16:01:10.415Z,20.42
2019-04-20T16:03:45.718Z,20.46
2019-04-20T16:06:14.787Z,20.41
2019-04-20T16:08:54.705Z,20.16
2019-04-20T16:11:23.486Z,20.21
2019-04-20T16:13:55.389Z,20.23
2019-04-20T16:16:23.785Z,20.24
2019-04-20T16:18:52.899Z,20.18
2019-04-20T16:21:24.906Z,20.30
2019-04-20T16:24:01.204Z,20.25
2019-04-20T16:26:35.721Z,20.46
2019-04-20T16:29:05.967Z,20.41
2019-04-20T16:31:36.221Z,20.38
2019-04-20T16:34:05.398Z,20.15
2019-04-20T16:36:38.758Z,19.90
2019-04-20T16:39:10.582Z,20.14
2019-04-20T16:41:40.216Z,20.16
2019-04-20T16:44:09.405Z,20.01
2019-04-20T16:47:18.471Z,20.00
2019-04-20T16:49:48.826Z,20.12
2019-04-20T16:52:19.107Z,20.07
2019-04-20T16:54:48.252Z,20.16
2019-04-20T16:57:17.680Z,20.03
2019-04-20T16:59:50.838Z,19.91
2019-04-20T17:02:19.568Z,19.93
2019-04-20T17:04:51.505Z,19.94
2019-04-20T17:07:22.914Z,19.76
2019-04-20T17:09:51.996Z,19.86
2019-04-20T17:12:21.701Z,19.78
2019-04-20T17:14:51.672Z,19.80
2019-04-20T17:17:21.917Z,19.70
2019-04-20T17:19:51.482Z,19.73
2019-04-20T17:22:21.481Z,19.65
2019-04-20T17:24:51.517Z,19.67
2019-04-20T17:27:44.712Z,19.66
2019-04-20T17:30:33.586Z,19.49
2019-04-20T17:33:06.192Z,19.48
2019-04-20T17:35:50.650Z,19.32
2019-04-20T17:38:06.906Z,19.18
2019-04-20T17:40:56.013Z,19.19
2019-04-20T17:43:17.808Z,18.93
2019-04-20T17:45:48.318Z,18.81
2019-04-20T17:48:26.990Z,18.70
2019-04-20T17:50:58.942Z,18.68
2019-04-20T17:53:31.527Z,18.63
2019-04-20T17:55:53.008Z,18.56
2019-04-20T17:58:28.983Z,18.32
2019-04-20T18:01:20.424Z,18.29
2019-04-20T18:04:15.198Z,18.21
2019-04-20T18:06:27.758Z,18.15
2019-04-20T18:08:55.495Z,18.04
2019-04-20T18:11:16.792Z,17.89
2019-04-20T18:13:43.362Z,17.93
2019-04-20T18:16:41.999Z,17.84
2019-04-20T18:22:54.786Z,17.66
2019-04-20T18:25:50.822Z,17.30
2019-04-20T18:28:04.129Z,17.16
2019-04-20T18:30:40.720Z,17.04
2019-04-20T18:33:01.135Z,17.01
2019-04-20T18:35:34.902Z,17.01
2019-04-20T18:38:04.688Z,16.82
2019-04-20T18:40:40.171Z,16.70
2019-04-20T18:43:10.343Z,16.53
2019-04-20T18:45:53.453Z,16.09
2019-04-20T18:48:24.580Z,15.56
2019-04-20T18:50:39.814Z,15.27
2019-04-20T18:53:05.572Z,14.97
2019-04-20T18:55:46.166Z,14.67
2019-04-20T18:58:07.021Z,14.55
2019-04-20T19:00:42.111Z,14.52
2019-04-20T19:03:14.427Z,14.24
2019-04-20T19:05:37.957Z,14.13
2019-04-20T19:08:11.559Z,14.00
2019-04-20T19:10:40.370Z,14.01
2019-04-20T19:13:23.800Z,13.99
2019-04-20T19:16:03.672Z,13.94
2019-04-20T19:18:45.250Z,13.90
2019-04-20T19:21:04.087Z,13.85
2019-04-20T19:23:53.361Z,13.77
2019-04-20T19:26:24.999Z,13.69
2019-04-20T19:29:34.561Z,13.74
2019-04-20T19:32:18.228Z,13.59
2019-04-20T19:34:41.823Z,13.39
2019-04-20T19:37:13.794Z,13.44
2019-04-20T19:39:47.081Z,13.33
2019-04-20T19:42:14.835Z,13.33
2019-04-20T19:44:47.967Z,13.22
2019-04-20T19:47:20.885Z,13.22
2019-04-20T19:49:44.150Z,13.10
2019-04-20T19:52:34.807Z,13.01
2019-04-20T19:54:50.684Z,13.00
2019-04-20T19:57:22.637Z,12.84
2019-04-20T19:59:40.469Z,12.71
2019-04-20T20:02:05.627Z,12.68
2019-04-20T20:04:41.410Z,12.55
2019-04-20T20:07:15.527Z,12.40
2019-04-20T20:09:38.521Z,12.15
2019-04-20T20:12:11.834Z,12.17
2019-04-20T20:14:41.283Z,11.98
2019-04-20T20:17:27.378Z,11.94
2019-04-20T20:20:11.874Z,12.00
2019-04-20T20:22:19.611Z,12.10
2019-04-20T20:24:39.049Z,11.99
2019-04-20T20:27:21.757Z,11.83
2019-04-20T20:29:51.897Z,11.70
2019-04-20T20:32:22.582Z,11.54
2019-04-20T20:34:43.490Z,11.47
2019-04-20T20:37:14.546Z,11.37
2019-04-20T20:39:52.585Z,11.14
2019-04-20T20:42:26.171Z,11.04
2019-04-20T20:44:50.421Z,10.98
2019-04-20T20:47:39.920Z,10.79
2019-04-20T20:50:07.962Z,10.74
2019-04-20T20:52:31.535Z,10.41
2019-04-20T20:54:56.314Z,10.44
2019-04-20T20:57:21.907Z,10.33
2019-04-20T20:59:55.272Z,10.26
2019-04-20T21:02:22.390Z,10.18
2019-04-20T21:04:47.876Z,10.17
2019-04-20T21:07:16.739Z,10.08
2019-04-20T21:09:46.123Z,10.21
2019-04-20T21:12:17.867Z,10.20
2019-04-20T21:14:46.882Z,10.11
2019-04-20T21:17:19.967Z,10.03
2019-04-20T21:20:03.457Z,9.88
2019-04-20T21:22:40.327Z,9.73
2019-04-20T21:24:51.472Z,9.87
2019-04-20T21:27:22.173Z,9.89
2019-04-20T21:29:54.350Z,9.78
2019-04-20T21:32:23.588Z,9.97
2019-04-20T21:35:00.296Z,9.89
2019-04-20T21:37:25.345Z,9.67
2019-04-20T21:39:59.061Z,9.62
2019-04-20T21:42:26.697Z,9.58
2019-04-20T21:45:05.624Z,9.31
2019-04-20T21:47:31.468Z,9.28
2019-04-20T21:50:15.672Z,9.37
2019-04-20T21:52:34.201Z,9.60
2019-04-20T21:54:58.174Z,9.66
2019-04-20T21:57:32.482Z,9.43
2019-04-20T22:00:08.380Z,9.37
2019-04-20T22:02:32.767Z,9.10
2019-04-20T22:04:58.662Z,8.84
2019-04-20T22:07:28.328Z,8.66
2019-04-20T22:09:58.456Z,8.54
2019-04-20T22:12:37.859Z,8.77
2019-04-20T22:15:03.977Z,8.89
2019-04-20T22:17:30.991Z,8.86
2019-04-20T22:20:13.278Z,8.91
2019-04-20T22:22:50.829Z,8.85
2019-04-20T22:25:16.172Z,8.69
2019-04-20T22:27:34.807Z,8.50
2019-04-20T22:30:02.149Z,8.25
2019-04-20T22:32:32.254Z,8.54
2019-04-20T22:35:06.799Z,8.47
2019-04-20T22:38:03.641Z,8.48
2019-04-20T22:40:31.617Z,8.20
2019-04-20T22:43:00.086Z,8.06
2019-04-20T22:45:29.511Z,8.04
2019-04-20T22:48:04.028Z,8.05
2019-04-20T22:50:41.359Z,7.97
2019-04-20T22:53:17.983Z,7.91
2019-04-20T22:55:59.989Z,7.82
2019-04-20T22:58:10.380Z,7.87
2019-04-20T23:00:39.262Z,7.94
2019-04-20T23:03:01.324Z,7.94
2019-04-20T23:05:30.958Z,7.83
2019-04-20T23:07:59.796Z,7.67
2019-04-20T23:10:35.819Z,7.63
2019-04-20T23:12:59.714Z,7.36
2019-04-20T23:15:30.150Z,7.48
2019-04-20T23:18:00.108Z,7.40
2019-04-20T23:20:32.661Z,7.46
2019-04-20T23:23:00.780Z,7.65
2019-04-20T23:25:29.723Z,7.61
2019-04-20T23:28:06.463Z,7.48
2019-04-20T23:30:33.980Z,7.20
2019-04-20T23:33:00.076Z,7.38
2019-04-20T23:35:30.373Z,7.37
2019-04-20T23:38:04.410Z,7.33
2019-04-20T23:40:29.967Z,7.28
2019-04-20T23:43:15.249Z,7.62
2019-04-20T23:45:53.099Z,7.49
2019-04-20T23:48:34.871Z,7.35
2019-04-20T23:51:24.950Z,7.27
2019-04-20T23:53:43.563Z,7.03
2019-04-20T23:56:01.764Z,7.11
2019-04-20T23:58:39.942Z,7.14
